sensor_id;sensor_type;location;lat;lon;timestamp;P1;durP1;ratioP1;P2;durP2;ratioP2
14187;SDS011;7175;51.978;5.330;2023-06-22T00:00:19;32.43;;;30.23;;
14187;SDS011;7175;51.978;5.330;2023-06-22T00:02:50;32.73;;;30.53;;
14187;SDS011;7175;51.978;5.330;2023-06-22T00:05:24;31.77;;;29.60;;
14187;SDS011;7175;51.978;5.330;2023-06-22T00:08:07;32.70;;;30.50;;
14187;SDS011;7175;51.978;5.330;2023-06-22T00:10:40;33.13;;;30.93;;
14187;SDS011;7175;51.978;5.330;2023-06-22T00:13:09;31.77;;;29.60;;
14187;SDS011;7175;51.978;5.330;2023-06-22T00:15:46;33.00;;;30.80;;
14187;SDS011;7175;51.978;5.330;2023-06-22T00:18:18;33.83;;;31.63;;
14187;SDS011;7175;51.978;5.330;2023-06-22T00:20:48;34.27;;;31.97;;
14187;SDS011;7175;51.978;5.330;2023-06-22T00:23:26;34.93;;;32.63;;
14187;SDS011;7175;51.978;5.330;2023-06-22T00:26:05;36.03;;;33.63;;
14187;SDS011;7175;51.978;5.330;2023-06-22T00:28:35;36.83;;;34.43;;
14187;SDS011;7175;51.978;5.330;2023-06-22T00:31:14;37.10;;;34.70;;
14187;SDS011;7175;51.978;5.330;2023-06-22T00:33:52;37.43;;;35.03;;
14187;SDS011;7175;51.978;5.330;2023-06-22T00:36:20;36.47;;;34.07;;
14187;SDS011;7175;51.978;5.330;2023-06-22T00:38:56;37.23;;;34.73;;
14187;SDS011;7175;51.978;5.330;2023-06-22T00:41:25;38.70;;;36.13;;
14187;SDS011;7175;51.978;5.330;2023-06-22T00:46:51;40.33;;;37.73;;
14187;SDS011;7175;51.978;5.330;2023-06-22T00:49:30;42.17;;;39.47;;
14187;SDS011;7175;51.978;5.330;2023-06-22T00:52:11;40.77;;;38.17;;
14187;SDS011;7175;51.978;5.330;2023-06-22T00:54:54;41.03;;;38.37;;
14187;SDS011;7175;51.978;5.330;2023-06-22T00:57:31;43.83;;;41.03;;
14187;SDS011;7175;51.978;5.330;2023-06-22T01:00:10;44.03;;;41.23;;
14187;SDS011;7175;51.978;5.330;2023-06-22T01:02:51;43.23;;;40.53;;
14187;SDS011;7175;51.978;5.330;2023-06-22T01:05:22;44.47;;;41.67;;
14187;SDS011;7175;51.978;5.330;2023-06-22T01:08:11;44.47;;;41.67;;
14187;SDS011;7175;51.978;5.330;2023-06-22T01:11:05;47.43;;;44.53;;
14187;SDS011;7175;51.978;5.330;2023-06-22T01:13:37;49.63;;;46.63;;
14187;SDS011;7175;51.978;5.330;2023-06-22T01:16:27;49.60;;;46.60;;
14187;SDS011;7175;51.978;5.330;2023-06-22T01:19:15;49.43;;;46.43;;
14187;SDS011;7175;51.978;5.330;2023-06-22T01:21:58;51.53;;;48.43;;
14187;SDS011;7175;51.978;5.330;2023-06-22T01:24:32;54.47;;;51.27;;
14187;SDS011;7175;51.978;5.330;2023-06-22T01:27:12;55.37;;;52.13;;
14187;SDS011;7175;51.978;5.330;2023-06-22T01:29:55;54.80;;;51.60;;
14187;SDS011;7175;51.978;5.330;2023-06-22T01:32:34;56.00;;;52.70;;
14187;SDS011;7175;51.978;5.330;2023-06-22T01:35:07;59.40;;;56.00;;
14187;SDS011;7175;51.978;5.330;2023-06-22T01:37:41;63.17;;;59.57;;
14187;SDS011;7175;51.978;5.330;2023-06-22T01:43:08;63.60;;;60.00;;
14187;SDS011;7175;51.978;5.330;2023-06-22T01:45:43;67.67;;;63.87;;
14187;SDS011;7175;51.978;5.330;2023-06-22T01:48:12;66.77;;;62.97;;
14187;SDS011;7175;51.978;5.330;2023-06-22T01:50:47;67.10;;;63.30;;
14187;SDS011;7175;51.978;5.330;2023-06-22T01:53:32;67.10;;;63.30;;
14187;SDS011;7175;51.978;5.330;2023-06-22T01:56:10;69.50;;;65.60;;
14187;SDS011;7175;51.978;5.330;2023-06-22T02:01:35;72.37;;;68.37;;
14187;SDS011;7175;51.978;5.330;2023-06-22T02:04:24;74.83;;;70.67;;
14187;SDS011;7175;51.978;5.330;2023-06-22T02:07:00;78.47;;;74.17;;
14187;SDS011;7175;51.978;5.330;2023-06-22T02:09:40;81.00;;;76.60;;
14187;SDS011;7175;51.978;5.330;2023-06-22T02:12:12;82.60;;;78.10;;
14187;SDS011;7175;51.978;5.330;2023-06-22T02:14:46;88.77;;;83.97;;
14187;SDS011;7175;51.978;5.330;2023-06-22T02:17:17;90.10;;;85.30;;
14187;SDS011;7175;51.978;5.330;2023-06-22T02:19:57;90.77;;;85.97;;
14187;SDS011;7175;51.978;5.330;2023-06-22T02:25:09;94.30;;;89.30;;
14187;SDS011;7175;51.978;5.330;2023-06-22T02:27:46;97.20;;;92.10;;
14187;SDS011;7175;51.978;5.330;2023-06-22T02:30:15;98.37;;;93.20;;
14187;SDS011;7175;51.978;5.330;2023-06-22T02:32:45;100.70;;;95.40;;
14187;SDS011;7175;51.978;5.330;2023-06-22T02:35:22;101.30;;;95.90;;
14187;SDS011;7175;51.978;5.330;2023-06-22T02:43:07;103.30;;;97.80;;
14187;SDS011;7175;51.978;5.330;2023-06-22T02:48:35;106.03;;;100.43;;
14187;SDS011;7175;51.978;5.330;2023-06-22T02:51:08;109.03;;;103.40;;
14187;SDS011;7175;51.978;5.330;2023-06-22T02:53:38;110.43;;;104.67;;
14187;SDS011;7175;51.978;5.330;2023-06-22T02:59:59;112.40;;;106.50;;
14187;SDS011;7175;51.978;5.330;2023-06-22T03:02:31;115.67;;;109.57;;
14187;SDS011;7175;51.978;5.330;2023-06-22T03:05:04;114.67;;;108.50;;
14187;SDS011;7175;51.978;5.330;2023-06-22T03:10:12;116.30;;;110.13;;
14187;SDS011;7175;51.978;5.330;2023-06-22T03:12:43;119.00;;;112.77;;
14187;SDS011;7175;51.978;5.330;2023-06-22T03:18:01;120.93;;;114.57;;
14187;SDS011;7175;51.978;5.330;2023-06-22T03:20:36;122.30;;;115.87;;
14187;SDS011;7175;51.978;5.330;2023-06-22T03:25:59;127.57;;;120.90;;
14187;SDS011;7175;51.978;5.330;2023-06-22T03:28:30;128.50;;;121.70;;
14187;SDS011;7175;51.978;5.330;2023-06-22T03:33:50;128.93;;;122.10;;
14187;SDS011;7175;51.978;5.330;2023-06-22T03:36:20;125.80;;;119.20;;
14187;SDS011;7175;51.978;5.330;2023-06-22T03:38:51;128.20;;;121.40;;
14187;SDS011;7175;51.978;5.330;2023-06-22T03:41:26;129.30;;;122.40;;
14187;SDS011;7175;51.978;5.330;2023-06-22T03:44:01;129.03;;;122.17;;
14187;SDS011;7175;51.978;5.330;2023-06-22T03:46:37;129.50;;;122.50;;
14187;SDS011;7175;51.978;5.330;2023-06-22T03:49:05;130.07;;;122.77;;
14187;SDS011;7175;51.978;5.330;2023-06-22T03:51:37;126.80;;;119.90;;
14187;SDS011;7175;51.978;5.330;2023-06-22T03:54:05;130.63;;;123.23;;
14187;SDS011;7175;51.978;5.330;2023-06-22T04:02:25;125.73;;;118.40;;
14187;SDS011;7175;51.978;5.330;2023-06-22T04:04:55;124.10;;;116.90;;
14187;SDS011;7175;51.978;5.330;2023-06-22T04:10:35;124.20;;;117.00;;
14187;SDS011;7175;51.978;5.330;2023-06-22T04:13:11;124.87;;;117.57;;
14187;SDS011;7175;51.978;5.330;2023-06-22T04:15:43;122.77;;;115.50;;
14187;SDS011;7175;51.978;5.330;2023-06-22T04:18:22;121.17;;;113.97;;
14187;SDS011;7175;51.978;5.330;2023-06-22T04:20:51;122.80;;;115.40;;
14187;SDS011;7175;51.978;5.330;2023-06-22T04:23:28;124.97;;;117.50;;
14187;SDS011;7175;51.978;5.330;2023-06-22T04:32:43;120.60;;;113.27;;
14187;SDS011;7175;51.978;5.330;2023-06-22T04:35:13;120.97;;;113.57;;
14187;SDS011;7175;51.978;5.330;2023-06-22T04:40:46;120.20;;;112.90;;
14187;SDS011;7175;51.978;5.330;2023-06-22T04:43:22;118.03;;;110.83;;
14187;SDS011;7175;51.978;5.330;2023-06-22T04:45:55;120.33;;;113.03;;
14187;SDS011;7175;51.978;5.330;2023-06-22T04:48:35;119.07;;;111.97;;
14187;SDS011;7175;51.978;5.330;2023-06-22T04:54:05;116.20;;;109.47;;
14187;SDS011;7175;51.978;5.330;2023-06-22T04:56:36;116.63;;;109.77;;
14187;SDS011;7175;51.978;5.330;2023-06-22T04:59:07;117.20;;;110.27;;
14187;SDS011;7175;51.978;5.330;2023-06-22T05:01:40;119.20;;;112.10;;
14187;SDS011;7175;51.978;5.330;2023-06-22T05:04:10;116.17;;;109.37;;
14187;SDS011;7175;51.978;5.330;2023-06-22T05:06:38;116.00;;;109.20;;
14187;SDS011;7175;51.978;5.330;2023-06-22T05:09:07;115.77;;;108.97;;
14187;SDS011;7175;51.978;5.330;2023-06-22T05:11:38;113.97;;;107.37;;
14187;SDS011;7175;51.978;5.330;2023-06-22T05:14:07;108.37;;;102.07;;
14187;SDS011;7175;51.978;5.330;2023-06-22T05:16:42;104.23;;;98.33;;
14187;SDS011;7175;51.978;5.330;2023-06-22T05:19:17;104.23;;;98.33;;
14187;SDS011;7175;51.978;5.330;2023-06-22T05:21:48;105.60;;;99.60;;
14187;SDS011;7175;51.978;5.330;2023-06-22T05:24:18;103.90;;;98.10;;
14187;SDS011;7175;51.978;5.330;2023-06-22T05:26:50;99.83;;;94.23;;
14187;SDS011;7175;51.978;5.330;2023-06-22T05:29:18;97.83;;;92.37;;
14187;SDS011;7175;51.978;5.330;2023-06-22T05:31:49;97.10;;;91.70;;
14187;SDS011;7175;51.978;5.330;2023-06-22T05:34:18;99.70;;;94.10;;
14187;SDS011;7175;51.978;5.330;2023-06-22T05:36:46;97.40;;;91.80;;
14187;SDS011;7175;51.978;5.330;2023-06-22T05:39:14;100.10;;;94.40;;
14187;SDS011;7175;51.978;5.330;2023-06-22T05:41:44;94.20;;;88.90;;
14187;SDS011;7175;51.978;5.330;2023-06-22T05:44:16;95.80;;;90.50;;
14187;SDS011;7175;51.978;5.330;2023-06-22T05:46:50;94.50;;;89.30;;
14187;SDS011;7175;51.978;5.330;2023-06-22T05:49:24;91.67;;;86.57;;
14187;SDS011;7175;51.978;5.330;2023-06-22T05:51:56;89.70;;;84.60;;
14187;SDS011;7175;51.978;5.330;2023-06-22T05:54:24;92.40;;;87.20;;
14187;SDS011;7175;51.978;5.330;2023-06-22T05:56:52;83.27;;;78.47;;
14187;SDS011;7175;51.978;5.330;2023-06-22T05:59:22;69.40;;;65.20;;
14187;SDS011;7175;51.978;5.330;2023-06-22T06:01:53;58.20;;;54.57;;
14187;SDS011;7175;51.978;5.330;2023-06-22T06:07:43;46.77;;;43.67;;
14187;SDS011;7175;51.978;5.330;2023-06-22T06:10:12;42.30;;;39.40;;
14187;SDS011;7175;51.978;5.330;2023-06-22T06:12:45;41.77;;;38.87;;
14187;SDS011;7175;51.978;5.330;2023-06-22T06:17:55;31.17;;;28.87;;
14187;SDS011;7175;51.978;5.330;2023-06-22T06:20:32;32.63;;;30.23;;
14187;SDS011;7175;51.978;5.330;2023-06-22T06:23:02;32.17;;;29.77;;
14187;SDS011;7175;51.978;5.330;2023-06-22T06:25:36;31.30;;;29.00;;
14187;SDS011;7175;51.978;5.330;2023-06-22T06:28:04;28.43;;;26.23;;
14187;SDS011;7175;51.978;5.330;2023-06-22T06:30:36;26.63;;;24.53;;
14187;SDS011;7175;51.978;5.330;2023-06-22T06:35:37;25.30;;;23.30;;
14187;SDS011;7175;51.978;5.330;2023-06-22T06:38:08;25.37;;;23.37;;
14187;SDS011;7175;51.978;5.330;2023-06-22T06:40:39;24.50;;;22.60;;
14187;SDS011;7175;51.978;5.330;2023-06-22T06:43:07;24.73;;;22.73;;
14187;SDS011;7175;51.978;5.330;2023-06-22T06:45:37;23.97;;;22.07;;
14187;SDS011;7175;51.978;5.330;2023-06-22T06:48:06;23.37;;;21.47;;
14187;SDS011;7175;51.978;5.330;2023-06-22T06:50:36;23.23;;;21.33;;
14187;SDS011;7175;51.978;5.330;2023-06-22T06:53:04;23.63;;;21.73;;
14187;SDS011;7175;51.978;5.330;2023-06-22T06:55:33;24.00;;;22.10;;
14187;SDS011;7175;51.978;5.330;2023-06-22T06:58:01;24.30;;;22.40;;
14187;SDS011;7175;51.978;5.330;2023-06-22T07:00:31;24.83;;;22.93;;
14187;SDS011;7175;51.978;5.330;2023-06-22T07:03:01;23.90;;;22.00;;
14187;SDS011;7175;51.978;5.330;2023-06-22T07:05:29;23.67;;;21.77;;
14187;SDS011;7175;51.978;5.330;2023-06-22T07:07:59;24.30;;;22.40;;
14187;SDS011;7175;51.978;5.330;2023-06-22T07:10:27;23.67;;;21.77;;
14187;SDS011;7175;51.978;5.330;2023-06-22T07:12:59;23.57;;;21.67;;
14187;SDS011;7175;51.978;5.330;2023-06-22T07:15:27;22.73;;;20.93;;
14187;SDS011;7175;51.978;5.330;2023-06-22T07:17:56;22.73;;;20.93;;
14187;SDS011;7175;51.978;5.330;2023-06-22T07:20:26;23.50;;;21.60;;
14187;SDS011;7175;51.978;5.330;2023-06-22T07:22:55;23.13;;;21.23;;
14187;SDS011;7175;51.978;5.330;2023-06-22T07:25:26;23.30;;;21.40;;
14187;SDS011;7175;51.978;5.330;2023-06-22T07:27:58;22.90;;;21.03;;
14187;SDS011;7175;51.978;5.330;2023-06-22T07:30:28;22.73;;;20.93;;
14187;SDS011;7175;51.978;5.330;2023-06-22T07:32:57;23.00;;;21.20;;
14187;SDS011;7175;51.978;5.330;2023-06-22T07:35:32;22.30;;;20.50;;
14187;SDS011;7175;51.978;5.330;2023-06-22T07:38:00;23.07;;;21.27;;
14187;SDS011;7175;51.978;5.330;2023-06-22T07:40:33;22.33;;;20.63;;
14187;SDS011;7175;51.978;5.330;2023-06-22T07:43:01;22.13;;;20.43;;
14187;SDS011;7175;51.978;5.330;2023-06-22T07:45:30;21.63;;;19.93;;
14187;SDS011;7175;51.978;5.330;2023-06-22T07:48:00;21.90;;;20.20;;
14187;SDS011;7175;51.978;5.330;2023-06-22T07:50:28;21.67;;;19.97;;
14187;SDS011;7175;51.978;5.330;2023-06-22T07:52:59;22.00;;;20.30;;
14187;SDS011;7175;51.978;5.330;2023-06-22T07:55:28;22.20;;;20.50;;
14187;SDS011;7175;51.978;5.330;2023-06-22T07:57:56;22.33;;;20.63;;
14187;SDS011;7175;51.978;5.330;2023-06-22T08:00:26;21.87;;;20.17;;
14187;SDS011;7175;51.978;5.330;2023-06-22T08:02:54;21.97;;;20.27;;
14187;SDS011;7175;51.978;5.330;2023-06-22T08:05:23;22.17;;;20.47;;
14187;SDS011;7175;51.978;5.330;2023-06-22T08:07:53;21.43;;;19.80;;
14187;SDS011;7175;51.978;5.330;2023-06-22T08:10:23;21.90;;;20.20;;
14187;SDS011;7175;51.978;5.330;2023-06-22T08:12:52;22.00;;;20.30;;
14187;SDS011;7175;51.978;5.330;2023-06-22T08:15:20;22.10;;;20.40;;
14187;SDS011;7175;51.978;5.330;2023-06-22T08:17:49;21.93;;;20.23;;
14187;SDS011;7175;51.978;5.330;2023-06-22T08:20:19;22.13;;;20.43;;
14187;SDS011;7175;51.978;5.330;2023-06-22T08:22:48;22.20;;;20.50;;
14187;SDS011;7175;51.978;5.330;2023-06-22T08:25:17;21.87;;;20.17;;
14187;SDS011;7175;51.978;5.330;2023-06-22T08:27:47;22.37;;;20.67;;
14187;SDS011;7175;51.978;5.330;2023-06-22T08:30:16;21.57;;;19.87;;
14187;SDS011;7175;51.978;5.330;2023-06-22T08:32:45;21.50;;;19.80;;
14187;SDS011;7175;51.978;5.330;2023-06-22T08:35:13;21.23;;;19.63;;
14187;SDS011;7175;51.978;5.330;2023-06-22T08:37:41;21.00;;;19.40;;
14187;SDS011;7175;51.978;5.330;2023-06-22T08:40:12;21.40;;;19.70;;
14187;SDS011;7175;51.978;5.330;2023-06-22T08:42:40;21.37;;;19.67;;
14187;SDS011;7175;51.978;5.330;2023-06-22T08:45:10;21.50;;;19.80;;
14187;SDS011;7175;51.978;5.330;2023-06-22T08:47:39;21.27;;;19.57;;
14187;SDS011;7175;51.978;5.330;2023-06-22T08:50:08;21.27;;;19.57;;
14187;SDS011;7175;51.978;5.330;2023-06-22T08:52:38;20.93;;;19.23;;
14187;SDS011;7175;51.978;5.330;2023-06-22T08:55:08;20.97;;;19.27;;
14187;SDS011;7175;51.978;5.330;2023-06-22T08:57:37;20.90;;;19.20;;
14187;SDS011;7175;51.978;5.330;2023-06-22T09:00:06;20.60;;;18.90;;
14187;SDS011;7175;51.978;5.330;2023-06-22T09:02:45;21.03;;;19.33;;
14187;SDS011;7175;51.978;5.330;2023-06-22T09:05:15;21.33;;;19.57;;
14187;SDS011;7175;51.978;5.330;2023-06-22T09:07:44;21.43;;;19.70;;
14187;SDS011;7175;51.978;5.330;2023-06-22T09:10:13;21.13;;;19.43;;
14187;SDS011;7175;51.978;5.330;2023-06-22T09:12:41;20.47;;;18.87;;
14187;SDS011;7175;51.978;5.330;2023-06-22T09:15:09;20.90;;;19.20;;
14187;SDS011;7175;51.978;5.330;2023-06-22T09:17:42;20.63;;;19.03;;
14187;SDS011;7175;51.978;5.330;2023-06-22T09:20:16;20.50;;;18.90;;
14187;SDS011;7175;51.978;5.330;2023-06-22T09:22:46;20.33;;;18.73;;
14187;SDS011;7175;51.978;5.330;2023-06-22T09:25:14;20.40;;;18.80;;
14187;SDS011;7175;51.978;5.330;2023-06-22T09:27:43;20.53;;;18.93;;
14187;SDS011;7175;51.978;5.330;2023-06-22T09:30:11;20.70;;;19.10;;
14187;SDS011;7175;51.978;5.330;2023-06-22T09:32:40;21.07;;;19.40;;
14187;SDS011;7175;51.978;5.330;2023-06-22T09:35:09;21.03;;;19.43;;
14187;SDS011;7175;51.978;5.330;2023-06-22T09:37:43;20.73;;;19.13;;
14187;SDS011;7175;51.978;5.330;2023-06-22T09:40:13;20.43;;;18.83;;
14187;SDS011;7175;51.978;5.330;2023-06-22T09:42:43;20.43;;;18.83;;
14187;SDS011;7175;51.978;5.330;2023-06-22T09:45:12;20.43;;;18.83;;
14187;SDS011;7175;51.978;5.330;2023-06-22T09:47:41;20.67;;;19.07;;
14187;SDS011;7175;51.978;5.330;2023-06-22T09:50:10;20.60;;;19.00;;
14187;SDS011;7175;51.978;5.330;2023-06-22T09:52:40;20.13;;;18.53;;
14187;SDS011;7175;51.978;5.330;2023-06-22T09:55:16;19.47;;;17.97;;
14187;SDS011;7175;51.978;5.330;2023-06-22T09:57:47;19.77;;;18.17;;
14187;SDS011;7175;51.978;5.330;2023-06-22T10:00:16;20.27;;;18.67;;
14187;SDS011;7175;51.978;5.330;2023-06-22T10:02:46;19.97;;;18.37;;
14187;SDS011;7175;51.978;5.330;2023-06-22T10:05:15;19.97;;;18.37;;
14187;SDS011;7175;51.978;5.330;2023-06-22T10:07:43;19.80;;;18.20;;
14187;SDS011;7175;51.978;5.330;2023-06-22T10:10:12;19.90;;;18.30;;
14187;SDS011;7175;51.978;5.330;2023-06-22T10:12:45;20.73;;;19.03;;
14187;SDS011;7175;51.978;5.330;2023-06-22T10:15:15;20.50;;;18.80;;
14187;SDS011;7175;51.978;5.330;2023-06-22T10:17:44;20.40;;;18.70;;
14187;SDS011;7175;51.978;5.330;2023-06-22T10:20:13;20.30;;;18.60;;
14187;SDS011;7175;51.978;5.330;2023-06-22T10:22:42;20.13;;;18.43;;
14187;SDS011;7175;51.978;5.330;2023-06-22T10:25:12;20.67;;;18.97;;
14187;SDS011;7175;51.978;5.330;2023-06-22T10:27:43;20.60;;;18.90;;
14187;SDS011;7175;51.978;5.330;2023-06-22T10:30:11;20.27;;;18.67;;
14187;SDS011;7175;51.978;5.330;2023-06-22T10:32:41;19.97;;;18.37;;
14187;SDS011;7175;51.978;5.330;2023-06-22T10:35:10;20.00;;;18.40;;
14187;SDS011;7175;51.978;5.330;2023-06-22T10:37:43;19.93;;;18.33;;
14187;SDS011;7175;51.978;5.330;2023-06-22T10:40:13;19.67;;;18.07;;
14187;SDS011;7175;51.978;5.330;2023-06-22T10:42:44;19.97;;;18.37;;
14187;SDS011;7175;51.978;5.330;2023-06-22T10:45:12;19.93;;;18.33;;
14187;SDS011;7175;51.978;5.330;2023-06-22T10:47:41;20.00;;;18.47;;
14187;SDS011;7175;51.978;5.330;2023-06-22T10:50:10;19.80;;;18.20;;
14187;SDS011;7175;51.978;5.330;2023-06-22T10:52:38;19.60;;;18.00;;
14187;SDS011;7175;51.978;5.330;2023-06-22T10:55:08;19.80;;;18.20;;
14187;SDS011;7175;51.978;5.330;2023-06-22T10:57:39;19.50;;;17.97;;
14187;SDS011;7175;51.978;5.330;2023-06-22T11:00:14;19.43;;;17.83;;
14187;SDS011;7175;51.978;5.330;2023-06-22T11:02:43;19.27;;;17.77;;
14187;SDS011;7175;51.978;5.330;2023-06-22T11:05:11;19.37;;;17.87;;
14187;SDS011;7175;51.978;5.330;2023-06-22T11:07:41;19.70;;;18.10;;
14187;SDS011;7175;51.978;5.330;2023-06-22T11:10:10;19.67;;;18.17;;
14187;SDS011;7175;51.978;5.330;2023-06-22T11:12:38;19.80;;;18.30;;
14187;SDS011;7175;51.978;5.330;2023-06-22T11:15:07;19.60;;;18.10;;
14187;SDS011;7175;51.978;5.330;2023-06-22T11:17:38;19.37;;;17.87;;
14187;SDS011;7175;51.978;5.330;2023-06-22T11:20:07;19.23;;;17.73;;
14187;SDS011;7175;51.978;5.330;2023-06-22T11:22:37;19.60;;;18.07;;
14187;SDS011;7175;51.978;5.330;2023-06-22T11:25:06;19.20;;;17.70;;
14187;SDS011;7175;51.978;5.330;2023-06-22T11:27:36;19.80;;;18.20;;
14187;SDS011;7175;51.978;5.330;2023-06-22T11:30:05;19.87;;;18.27;;
14187;SDS011;7175;51.978;5.330;2023-06-22T11:32:36;19.90;;;18.30;;
14187;SDS011;7175;51.978;5.330;2023-06-22T11:35:06;19.97;;;18.37;;
14187;SDS011;7175;51.978;5.330;2023-06-22T11:37:35;20.50;;;18.90;;
14187;SDS011;7175;51.978;5.330;2023-06-22T11:40:04;20.27;;;18.67;;
14187;SDS011;7175;51.978;5.330;2023-06-22T11:42:35;19.97;;;18.37;;
14187;SDS011;7175;51.978;5.330;2023-06-22T11:45:04;19.70;;;18.10;;
14187;SDS011;7175;51.978;5.330;2023-06-22T11:47:34;20.07;;;18.37;;
14187;SDS011;7175;51.978;5.330;2023-06-22T11:50:03;19.50;;;17.90;;
14187;SDS011;7175;51.978;5.330;2023-06-22T11:52:34;19.50;;;17.90;;
14187;SDS011;7175;51.978;5.330;2023-06-22T11:55:03;19.70;;;18.10;;
14187;SDS011;7175;51.978;5.330;2023-06-22T11:57:35;19.80;;;18.20;;
14187;SDS011;7175;51.978;5.330;2023-06-22T12:00:06;20.00;;;18.40;;
14187;SDS011;7175;51.978;5.330;2023-06-22T12:02:42;19.93;;;18.33;;
14187;SDS011;7175;51.978;5.330;2023-06-22T12:05:11;20.10;;;18.40;;
14187;SDS011;7175;51.978;5.330;2023-06-22T12:07:41;20.40;;;18.70;;
14187;SDS011;7175;51.978;5.330;2023-06-22T12:10:10;20.40;;;18.70;;
14187;SDS011;7175;51.978;5.330;2023-06-22T12:12:38;20.53;;;18.83;;
14187;SDS011;7175;51.978;5.330;2023-06-22T12:15:06;20.43;;;18.73;;
14187;SDS011;7175;51.978;5.330;2023-06-22T12:17:37;20.27;;;18.60;;
14187;SDS011;7175;51.978;5.330;2023-06-22T12:20:08;20.40;;;18.70;;
14187;SDS011;7175;51.978;5.330;2023-06-22T12:22:38;20.40;;;18.80;;
14187;SDS011;7175;51.978;5.330;2023-06-22T12:25:08;20.70;;;19.10;;
14187;SDS011;7175;51.978;5.330;2023-06-22T12:27:37;20.63;;;19.03;;
14187;SDS011;7175;51.978;5.330;2023-06-22T12:30:05;20.70;;;19.10;;
14187;SDS011;7175;51.978;5.330;2023-06-22T12:32:36;20.60;;;19.00;;
14187;SDS011;7175;51.978;5.330;2023-06-22T12:35:05;20.80;;;19.20;;
14187;SDS011;7175;51.978;5.330;2023-06-22T12:37:38;20.93;;;19.33;;
14187;SDS011;7175;51.978;5.330;2023-06-22T12:40:09;20.67;;;19.07;;
14187;SDS011;7175;51.978;5.330;2023-06-22T12:42:38;20.70;;;19.10;;
14187;SDS011;7175;51.978;5.330;2023-06-22T12:45:06;21.23;;;19.53;;
14187;SDS011;7175;51.978;5.330;2023-06-22T12:47:35;20.33;;;18.73;;
14187;SDS011;7175;51.978;5.330;2023-06-22T12:50:04;20.53;;;18.93;;
14187;SDS011;7175;51.978;5.330;2023-06-22T12:52:36;21.20;;;19.50;;
14187;SDS011;7175;51.978;5.330;2023-06-22T12:55:12;22.60;;;20.80;;
14187;SDS011;7175;51.978;5.330;2023-06-22T12:57:41;22.53;;;20.73;;
14187;SDS011;7175;51.978;5.330;2023-06-22T13:12:20;24.50;;;22.60;;
14187;SDS011;7175;51.978;5.330;2023-06-22T13:14:54;25.43;;;23.43;;
14187;SDS011;7175;51.978;5.330;2023-06-22T13:17:35;26.20;;;24.20;;
14187;SDS011;7175;51.978;5.330;2023-06-22T13:23:21;31.50;;;29.10;;
14187;SDS011;7175;51.978;5.330;2023-06-22T13:26:05;34.60;;;32.00;;
14187;SDS011;7175;51.978;5.330;2023-06-22T13:28:52;34.73;;;32.13;;
14187;SDS011;7175;51.978;5.330;2023-06-22T13:31:30;38.27;;;35.50;;
14187;SDS011;7175;51.978;5.330;2023-06-22T13:34:11;36.90;;;34.20;;
14187;SDS011;7175;51.978;5.330;2023-06-22T13:36:39;38.30;;;35.50;;
14187;SDS011;7175;51.978;5.330;2023-06-22T13:41:48;33.97;;;31.40;;
14187;SDS011;7175;51.978;5.330;2023-06-22T13:44:36;33.17;;;30.67;;
14187;SDS011;7175;51.978;5.330;2023-06-22T13:47:21;36.07;;;33.47;;
14187;SDS011;7175;51.978;5.330;2023-06-22T13:50:04;35.77;;;33.17;;
14187;SDS011;7175;51.978;5.330;2023-06-22T13:52:34;38.10;;;35.40;;
14187;SDS011;7175;51.978;5.330;2023-06-22T13:55:15;35.77;;;33.17;;
14187;SDS011;7175;51.978;5.330;2023-06-22T13:57:48;42.10;;;39.20;;
14187;SDS011;7175;51.978;5.330;2023-06-22T14:00:19;43.80;;;40.80;;
14187;SDS011;7175;51.978;5.330;2023-06-22T14:03:01;50.10;;;46.80;;
14187;SDS011;7175;51.978;5.330;2023-06-22T14:05:40;40.47;;;37.67;;
14187;SDS011;7175;51.978;5.330;2023-06-22T14:08:22;42.87;;;39.97;;
14187;SDS011;7175;51.978;5.330;2023-06-22T14:14:54;52.37;;;48.97;;
14187;SDS011;7175;51.978;5.330;2023-06-22T14:17:26;53.50;;;50.00;;
14187;SDS011;7175;51.978;5.330;2023-06-22T14:20:06;50.10;;;46.80;;
14187;SDS011;7175;51.978;5.330;2023-06-22T14:22:48;58.77;;;54.97;;
14187;SDS011;7175;51.978;5.330;2023-06-22T14:25:19;45.70;;;42.60;;
14187;SDS011;7175;51.978;5.330;2023-06-22T14:30:37;52.90;;;49.40;;
14187;SDS011;7175;51.978;5.330;2023-06-22T14:33:07;54.87;;;51.27;;
14187;SDS011;7175;51.978;5.330;2023-06-22T14:35:36;64.23;;;60.13;;
14187;SDS011;7175;51.978;5.330;2023-06-22T14:38:17;67.93;;;63.63;;
14187;SDS011;7175;51.978;5.330;2023-06-22T14:40:48;72.33;;;67.83;;
14187;SDS011;7175;51.978;5.330;2023-06-22T14:43:43;76.67;;;71.97;;
14187;SDS011;7175;51.978;5.330;2023-06-22T14:46:24;84.60;;;79.40;;
14187;SDS011;7175;51.978;5.330;2023-06-22T14:48:55;85.70;;;80.40;;
14187;SDS011;7175;51.978;5.330;2023-06-22T14:51:27;88.23;;;82.73;;
14187;SDS011;7175;51.978;5.330;2023-06-22T14:54:03;89.83;;;84.10;;
14187;SDS011;7175;51.978;5.330;2023-06-22T14:56:32;87.50;;;81.97;;
14187;SDS011;7175;51.978;5.330;2023-06-22T14:59:15;81.10;;;76.00;;
14187;SDS011;7175;51.978;5.330;2023-06-22T15:01:53;84.13;;;78.73;;
14187;SDS011;7175;51.978;5.330;2023-06-22T15:04:25;88.43;;;82.83;;
14187;SDS011;7175;51.978;5.330;2023-06-22T15:06:59;90.10;;;84.40;;
14187;SDS011;7175;51.978;5.330;2023-06-22T15:09:42;94.67;;;88.60;;
14187;SDS011;7175;51.978;5.330;2023-06-22T15:12:11;94.50;;;88.40;;
14187;SDS011;7175;51.978;5.330;2023-06-22T15:14:42;98.60;;;92.20;;
14187;SDS011;7175;51.978;5.330;2023-06-22T15:17:16;98.10;;;91.70;;
14187;SDS011;7175;51.978;5.330;2023-06-22T15:20:05;101.30;;;94.80;;
14187;SDS011;7175;51.978;5.330;2023-06-22T15:22:37;88.77;;;83.17;;
14187;SDS011;7175;51.978;5.330;2023-06-22T15:25:12;87.00;;;81.40;;
14187;SDS011;7175;51.978;5.330;2023-06-22T15:27:47;85.63;;;80.23;;
14187;SDS011;7175;51.978;5.330;2023-06-22T15:30:25;83.70;;;78.40;;
14187;SDS011;7175;51.978;5.330;2023-06-22T15:38:26;78.17;;;73.07;;
14187;SDS011;7175;51.978;5.330;2023-06-22T15:41:04;89.30;;;83.50;;
14187;SDS011;7175;51.978;5.330;2023-06-22T15:43:43;83.03;;;77.73;;
14187;SDS011;7175;51.978;5.330;2023-06-22T15:52:44;85.87;;;80.30;;
14187;SDS011;7175;51.978;5.330;2023-06-22T15:55:23;93.07;;;87.07;;
14187;SDS011;7175;51.978;5.330;2023-06-22T15:57:54;97.57;;;91.27;;
14187;SDS011;7175;51.978;5.330;2023-06-22T16:00:41;102.77;;;96.07;;
14187;SDS011;7175;51.978;5.330;2023-06-22T16:03:20;107.17;;;100.13;;
14187;SDS011;7175;51.978;5.330;2023-06-22T16:05:57;108.03;;;100.93;;
14187;SDS011;7175;51.978;5.330;2023-06-22T16:08:29;108.30;;;101.13;;
14187;SDS011;7175;51.978;5.330;2023-06-22T16:11:00;107.27;;;100.17;;
14187;SDS011;7175;51.978;5.330;2023-06-22T16:13:29;107.67;;;100.57;;
14187;SDS011;7175;51.978;5.330;2023-06-22T16:16:01;109.70;;;102.30;;
14187;SDS011;7175;51.978;5.330;2023-06-22T16:18:40;108.70;;;101.30;;
14187;SDS011;7175;51.978;5.330;2023-06-22T16:21:18;108.63;;;101.23;;
14187;SDS011;7175;51.978;5.330;2023-06-22T16:23:53;111.13;;;103.43;;
14187;SDS011;7175;51.978;5.330;2023-06-22T16:26:29;116.53;;;108.33;;
14187;SDS011;7175;51.978;5.330;2023-06-22T16:29:09;116.53;;;108.43;;
14187;SDS011;7175;51.978;5.330;2023-06-22T16:31:44;119.53;;;111.00;;
14187;SDS011;7175;51.978;5.330;2023-06-22T16:34:14;120.93;;;112.13;;
14187;SDS011;7175;51.978;5.330;2023-06-22T16:36:42;122.30;;;113.30;;
14187;SDS011;7175;51.978;5.330;2023-06-22T16:39:12;122.17;;;112.97;;
14187;SDS011;7175;51.978;5.330;2023-06-22T16:41:40;124.83;;;115.43;;